createdAt,value
2018-06-21T00:01:07.742Z,23.90
2018-06-21T00:04:41.027Z,23.80
2018-06-21T00:08:14.308Z,23.80
2018-06-21T00:11:47.565Z,23.80
2018-06-21T00:15:20.831Z,23.70
2018-06-21T00:18:54.309Z,23.70
2018-06-21T00:22:28.473Z,23.60
2018-06-21T00:26:01.735Z,23.50
2018-06-21T00:29:35.043Z,23.30
2018-06-21T00:33:08.768Z,23.10
2018-06-21T00:36:42.532Z,23.00
2018-06-21T00:40:15.863Z,23.00
2018-06-21T00:43:49.136Z,23.00
2018-06-21T00:47:22.421Z,22.90
2018-06-21T00:54:28.636Z,22.90
2018-06-21T00:58:01.903Z,22.90
2018-06-21T01:01:35.143Z,22.80
2018-06-21T01:05:08.919Z,22.80
2018-06-21T01:08:42.826Z,22.80
2018-06-21T01:12:22.404Z,22.90
2018-06-21T01:15:55.652Z,22.90
2018-06-21T01:19:28.896Z,22.80
2018-06-21T01:23:02.114Z,22.80
2018-06-21T01:26:35.333Z,22.80
2018-06-21T01:30:08.528Z,22.70
2018-06-21T01:33:41.767Z,22.70
2018-06-21T01:37:15.018Z,22.60
2018-06-21T01:40:48.256Z,22.50
2018-06-21T01:44:21.480Z,22.40
2018-06-21T01:47:54.694Z,22.30
2018-06-21T01:55:01.011Z,22.20
2018-06-21T01:58:34.249Z,22.20
2018-06-21T02:02:07.503Z,22.20
2018-06-21T02:05:40.719Z,22.20
2018-06-21T02:09:14.112Z,22.20
2018-06-21T02:12:47.360Z,22.20
2018-06-21T02:16:20.604Z,22.10
2018-06-21T02:19:53.828Z,22.20
2018-06-21T02:23:27.075Z,22.20
2018-06-21T02:27:00.317Z,22.10
2018-06-21T02:30:34.080Z,22.10
2018-06-21T02:34:07.839Z,22.10
2018-06-21T02:37:41.072Z,22.10
2018-06-21T02:41:14.314Z,22.10
2018-06-21T02:44:47.537Z,22.00
2018-06-21T02:48:20.779Z,22.00
2018-06-21T02:51:54.063Z,21.90
2018-06-21T02:55:27.270Z,21.90
2018-06-21T02:59:00.519Z,21.80
2018-06-21T03:02:33.756Z,21.80
2018-06-21T03:06:07.502Z,21.70
2018-06-21T03:09:40.756Z,21.70
2018-06-21T03:13:13.977Z,21.70
2018-06-21T03:16:47.227Z,21.70
2018-06-21T03:20:20.452Z,21.60
2018-06-21T03:23:53.686Z,21.60
2018-06-21T03:27:26.908Z,21.60
2018-06-21T03:31:00.127Z,21.50
2018-06-21T03:34:33.348Z,21.50
2018-06-21T03:38:06.616Z,21.50
2018-06-21T03:45:13.060Z,21.50
2018-06-21T03:48:46.331Z,21.50
2018-06-21T03:52:19.696Z,21.60
2018-06-21T03:55:53.454Z,21.70
2018-06-21T03:59:26.686Z,21.70
2018-06-21T04:02:59.935Z,21.70
2018-06-21T04:06:33.416Z,21.80
2018-06-21T04:10:06.771Z,21.90
2018-06-21T04:13:40.047Z,22.00
2018-06-21T04:17:13.283Z,22.10
2018-06-21T04:20:46.538Z,22.30
2018-06-21T04:24:19.838Z,22.40
2018-06-21T04:27:53.096Z,22.50
2018-06-21T04:31:26.368Z,22.50
2018-06-21T04:34:59.604Z,22.50
2018-06-21T04:38:32.880Z,22.50
2018-06-21T04:42:06.199Z,22.60
2018-06-21T04:45:39.956Z,22.60
2018-06-21T04:49:13.196Z,22.60
2018-06-21T04:52:46.498Z,22.50
2018-06-21T04:56:19.735Z,22.50
2018-06-21T04:59:52.992Z,22.50
2018-06-21T05:03:26.219Z,22.50
2018-06-21T05:06:59.524Z,22.60
2018-06-21T05:10:32.771Z,22.70
2018-06-21T05:14:06.127Z,22.70
2018-06-21T05:17:39.379Z,22.80
2018-06-21T05:21:12.665Z,22.90
2018-06-21T05:24:45.935Z,23.00
2018-06-21T05:28:19.151Z,23.00
2018-06-21T05:31:52.378Z,23.10
2018-06-21T05:35:25.674Z,23.20
2018-06-21T05:38:58.921Z,23.30
2018-06-21T05:42:32.196Z,23.40
2018-06-21T05:46:05.405Z,23.50
2018-06-21T05:49:38.625Z,23.60
2018-06-21T05:53:11.867Z,23.70
2018-06-21T05:56:45.161Z,23.70
2018-06-21T06:00:18.359Z,23.80
2018-06-21T06:03:51.674Z,24.00
2018-06-21T06:07:24.928Z,24.00
2018-06-21T06:10:58.152Z,24.10
2018-06-21T06:14:31.447Z,24.20
2018-06-21T06:21:39.438Z,24.50
2018-06-21T06:25:12.679Z,24.60
2018-06-21T06:28:46.581Z,24.70
2018-06-21T06:32:19.715Z,24.80
2018-06-21T06:35:54.536Z,24.80
2018-06-21T06:39:27.798Z,25.00
2018-06-21T06:43:01.011Z,25.20
2018-06-21T06:50:07.479Z,25.50
2018-06-21T06:53:40.713Z,25.60
2018-06-21T07:00:47.480Z,25.90
2018-06-21T07:04:21.010Z,26.10
2018-06-21T07:07:54.249Z,26.20
2018-06-21T07:11:28.345Z,26.50
2018-06-21T07:22:08.170Z,26.80
2018-06-21T07:25:41.424Z,26.90
2018-06-21T07:29:14.659Z,27.10
2018-06-21T07:32:48.185Z,27.30
2018-06-21T07:36:21.422Z,27.40
2018-06-21T07:39:54.720Z,27.50
2018-06-21T07:43:27.948Z,27.50
2018-06-21T07:47:01.142Z,27.50
2018-06-21T07:50:34.369Z,27.50
2018-06-21T07:57:40.595Z,27.60
2018-06-21T08:01:13.823Z,27.60
2018-06-21T08:04:47.109Z,27.70
2018-06-21T08:08:20.351Z,27.70
2018-06-21T08:11:53.589Z,27.70
2018-06-21T08:15:26.836Z,27.80
2018-06-21T08:19:00.103Z,28.00
2018-06-21T08:22:33.387Z,28.20
2018-06-21T08:26:06.602Z,28.30
2018-06-21T08:29:39.835Z,28.60
2018-06-21T08:36:46.105Z,29.10
2018-06-21T08:40:19.411Z,29.30
2018-06-21T08:43:52.642Z,29.40
2018-06-21T08:54:31.929Z,29.60
2018-06-21T08:58:05.290Z,29.80
2018-06-21T09:01:38.521Z,29.90
2018-06-21T09:05:11.797Z,30.00
2018-06-21T09:08:45.054Z,29.90
2018-06-21T09:12:18.426Z,29.60
2018-06-21T09:22:57.668Z,28.60
2018-06-21T09:26:30.904Z,28.30
2018-06-21T09:30:04.245Z,28.10
2018-06-21T09:33:37.646Z,28.20
2018-06-21T09:37:10.886Z,28.30
2018-06-21T09:40:49.427Z,28.60
2018-06-21T09:44:29.791Z,28.80
2018-06-21T09:48:08.337Z,28.90
2018-06-21T09:58:47.609Z,28.80
2018-06-21T10:02:20.839Z,28.80
2018-06-21T10:05:54.098Z,29.00
2018-06-21T10:09:27.371Z,29.20
2018-06-21T10:13:00.626Z,29.30
2018-06-21T10:16:33.880Z,29.20
2018-06-21T10:20:07.264Z,29.00
2018-06-21T10:23:40.498Z,28.80
2018-06-21T10:27:13.765Z,28.70
2018-06-21T10:30:47.039Z,28.50
2018-06-21T10:34:20.275Z,28.30
2018-06-21T10:37:53.520Z,28.10
2018-06-21T10:41:26.784Z,28.10
2018-06-21T10:45:00.049Z,28.10
2018-06-21T10:48:33.289Z,28.00
2018-06-21T10:52:06.638Z,27.90
2018-06-21T10:55:39.869Z,27.90
2018-06-21T10:59:13.121Z,28.10
2018-06-21T11:02:46.336Z,28.10
2018-06-21T11:06:19.579Z,28.20
2018-06-21T11:09:52.803Z,28.30
2018-06-21T11:13:26.044Z,28.40
2018-06-21T11:16:59.293Z,28.40
2018-06-21T11:20:32.811Z,28.40
2018-06-21T11:24:06.154Z,28.30
2018-06-21T11:27:39.514Z,28.30
2018-06-21T11:31:12.693Z,28.40
2018-06-21T11:34:45.921Z,28.50
2018-06-21T11:38:19.164Z,28.60
2018-06-21T11:41:52.516Z,28.50
2018-06-21T11:45:25.762Z,28.50
2018-06-21T11:48:58.995Z,28.50
2018-06-21T11:52:32.223Z,28.40
2018-06-21T11:59:38.861Z,28.20
2018-06-21T12:03:12.104Z,28.00
2018-06-21T12:06:45.347Z,27.90
2018-06-21T12:10:18.560Z,27.90
2018-06-21T12:13:51.790Z,27.90
2018-06-21T12:17:25.065Z,27.90
2018-06-21T12:20:58.297Z,27.90
2018-06-21T12:24:31.547Z,28.00
2018-06-21T12:28:04.863Z,28.00
2018-06-21T12:31:38.096Z,28.00
2018-06-21T12:35:11.337Z,27.90
2018-06-21T12:42:17.554Z,27.70
2018-06-21T12:45:50.805Z,27.70
2018-06-21T12:49:24.072Z,27.70
2018-06-21T12:52:57.268Z,27.60
2018-06-21T12:56:30.539Z,27.50
2018-06-21T13:00:04.144Z,27.40
2018-06-21T13:03:37.402Z,27.40
2018-06-21T13:07:11.449Z,27.60
2018-06-21T13:10:56.020Z,27.70
2018-06-21T13:14:29.264Z,27.80
2018-06-21T13:18:02.526Z,27.80
2018-06-21T13:21:35.810Z,27.80
2018-06-21T13:28:42.968Z,27.60
2018-06-21T13:32:16.249Z,27.50
2018-06-21T13:35:49.487Z,27.40
2018-06-21T13:39:22.792Z,27.40
2018-06-21T13:42:56.038Z,27.40
2018-06-21T13:46:29.271Z,27.40
2018-06-21T13:50:02.573Z,27.30
2018-06-21T13:53:35.783Z,27.10
2018-06-21T13:57:09.004Z,26.90
2018-06-21T14:00:42.264Z,26.60
2018-06-21T14:04:15.478Z,26.50
2018-06-21T14:07:48.785Z,26.50
2018-06-21T14:11:22.042Z,26.70
2018-06-21T14:14:55.268Z,26.90
2018-06-21T14:18:28.491Z,26.80
2018-06-21T14:22:01.736Z,26.80
2018-06-21T14:25:35.195Z,27.00
2018-06-21T14:29:08.439Z,27.30
2018-06-21T14:36:14.673Z,27.70
2018-06-21T14:39:48.247Z,27.60
2018-06-21T14:43:21.549Z,27.50
2018-06-21T14:46:54.935Z,26.90
2018-06-21T14:54:01.200Z,26.80
2018-06-21T14:57:34.446Z,27.20
2018-06-21T15:01:07.672Z,27.20
2018-06-21T15:04:40.932Z,26.90
2018-06-21T15:11:47.192Z,26.30
2018-06-21T15:15:20.503Z,26.20
2018-06-21T15:18:53.755Z,26.00
2018-06-21T15:22:26.967Z,25.70
2018-06-21T15:26:00.221Z,25.50
2018-06-21T15:33:06.448Z,25.40
2018-06-21T15:36:39.737Z,25.20
2018-06-21T15:40:13.034Z,24.90
2018-06-21T15:43:46.260Z,24.70
2018-06-21T15:47:19.524Z,24.60
2018-06-21T15:50:53.094Z,24.50
2018-06-21T15:54:26.321Z,24.50
2018-06-21T15:57:59.675Z,24.30
2018-06-21T16:01:32.928Z,24.20
2018-06-21T16:08:39.133Z,24.30
2018-06-21T16:12:12.444Z,24.30
2018-06-21T16:15:47.207Z,24.30
2018-06-21T16:19:20.427Z,24.30
2018-06-21T16:22:53.743Z,24.40
2018-06-21T16:26:27.568Z,24.60
2018-06-21T16:33:56.409Z,24.50
2018-06-21T16:43:22.144Z,24.40
2018-06-21T16:46:55.493Z,24.40
2018-06-21T16:50:33.088Z,24.30
2018-06-21T16:54:06.569Z,24.20
2018-06-21T16:57:39.767Z,24.20
2018-06-21T17:01:13.016Z,24.30
2018-06-21T17:04:46.232Z,24.30
2018-06-21T17:08:19.486Z,24.30
2018-06-21T17:11:52.777Z,24.20
2018-06-21T17:15:26.019Z,24.10
2018-06-21T17:18:59.292Z,24.00
2018-06-21T17:22:32.526Z,23.90
2018-06-21T17:26:05.760Z,23.80
2018-06-21T17:29:39.014Z,23.70
2018-06-21T17:33:12.297Z,23.60
2018-06-21T17:36:45.566Z,23.60
2018-06-21T17:40:18.816Z,23.60
2018-06-21T17:43:52.066Z,23.50
2018-06-21T17:50:58.395Z,23.20
2018-06-21T17:54:31.647Z,23.00
2018-06-21T17:58:04.984Z,22.90
2018-06-21T18:01:38.171Z,22.80
2018-06-21T18:05:11.509Z,22.80
2018-06-21T18:12:20.514Z,22.60
2018-06-21T18:15:53.803Z,22.40
2018-06-21T18:19:27.058Z,22.30
2018-06-21T18:23:00.401Z,22.30
2018-06-21T18:26:33.639Z,22.20
2018-06-21T18:30:06.896Z,22.10
2018-06-21T18:33:40.163Z,22.10
2018-06-21T18:37:13.475Z,22.10
2018-06-21T18:40:46.707Z,22.10
2018-06-21T18:44:19.937Z,22.10
2018-06-21T18:47:53.429Z,22.00
2018-06-21T18:54:59.668Z,21.90
2018-06-21T18:58:32.891Z,21.80
2018-06-21T19:02:06.115Z,21.70
2018-06-21T19:05:39.419Z,21.60
2018-06-21T19:12:51.071Z,21.50
2018-06-21T19:16:24.341Z,21.40
2018-06-21T19:19:57.723Z,21.40
2018-06-21T19:23:31.023Z,21.40
2018-06-21T19:27:04.292Z,21.30
2018-06-21T19:30:37.595Z,21.30
2018-06-21T19:34:10.833Z,21.30
2018-06-21T19:37:44.080Z,21.20
2018-06-21T19:41:17.317Z,21.20
2018-06-21T19:44:50.556Z,21.10
2018-06-21T19:48:23.813Z,21.00
2018-06-21T19:51:57.084Z,21.00
2018-06-21T19:55:30.388Z,21.00
2018-06-21T19:59:03.777Z,20.90
2018-06-21T20:02:42.196Z,20.90
2018-06-21T20:06:15.467Z,20.80
2018-06-21T20:09:48.821Z,20.80
2018-06-21T20:13:22.092Z,20.80
2018-06-21T20:16:55.504Z,20.70
2018-06-21T20:20:33.909Z,20.50
2018-06-21T20:24:07.244Z,20.30
2018-06-21T20:27:40.494Z,20.20
2018-06-21T20:34:48.303Z,19.90
2018-06-21T20:38:21.628Z,19.80
2018-06-21T20:41:55.054Z,19.70
2018-06-21T20:45:28.294Z,19.60
2018-06-21T20:49:01.581Z,19.50
2018-06-21T20:52:34.837Z,19.40
2018-06-21T20:56:08.216Z,19.30
2018-06-21T20:59:41.660Z,19.20
2018-06-21T21:03:14.891Z,19.20
2018-06-21T21:06:48.139Z,19.10
2018-06-21T21:13:54.715Z,18.80
2018-06-21T21:17:28.107Z,18.70
2018-06-21T21:21:01.423Z,18.50
2018-06-21T21:24:34.968Z,18.50
2018-06-21T21:28:08.195Z,18.40
2018-06-21T21:31:41.581Z,18.20
2018-06-21T21:35:14.733Z,18.10
2018-06-21T21:38:48.178Z,18.00
2018-06-21T21:42:21.786Z,17.90
2018-06-21T21:45:55.028Z,17.80
2018-06-21T21:49:30.301Z,17.80
2018-06-21T21:53:03.602Z,17.70
2018-06-21T21:56:36.898Z,17.60
2018-06-21T22:00:26.655Z,17.50
2018-06-21T22:03:59.903Z,17.40
2018-06-21T22:07:33.189Z,17.30
2018-06-21T22:11:06.479Z,17.30
2018-06-21T22:14:39.750Z,17.20
2018-06-21T22:18:13.015Z,17.20
2018-06-21T22:21:46.292Z,17.20
2018-06-21T22:25:20.461Z,17.10
2018-06-21T22:28:54.146Z,17.10
2018-06-21T22:32:27.464Z,17.10
2018-06-21T22:36:00.684Z,17.10
2018-06-21T22:39:34.210Z,17.00
2018-06-21T22:43:07.481Z,17.00
2018-06-21T22:46:40.717Z,16.90
2018-06-21T22:50:13.988Z,16.90
2018-06-21T22:53:47.228Z,16.80
2018-06-21T22:57:21.102Z,16.80
2018-06-21T23:00:54.359Z,16.80
2018-06-21T23:08:00.600Z,16.70
2018-06-21T23:11:33.867Z,16.60
2018-06-21T23:15:07.214Z,16.50
2018-06-21T23:18:51.647Z,16.50
2018-06-21T23:22:24.876Z,16.40
2018-06-21T23:25:58.143Z,16.30
2018-06-21T23:29:31.387Z,16.20
2018-06-21T23:33:04.636Z,16.10
2018-06-21T23:36:37.870Z,16.00
2018-06-21T23:40:11.216Z,15.90
2018-06-21T23:47:17.486Z,15.80
2018-06-21T23:50:50.751Z,15.70
2018-06-21T23:54:24.003Z,15.60
